createdAt,value
2019-04-14T00:01:15.414Z,98385.37
2019-04-14T00:02:35.854Z,98388.05
2019-04-14T00:03:46.068Z,98388.03
2019-04-14T00:04:53.098Z,98383.48
2019-04-14T00:06:00.521Z,98396.92
2019-04-14T00:07:04.007Z,98389.97
2019-04-14T00:08:07.243Z,98394.27
2019-04-14T00:09:10.160Z,98391.28
2019-04-14T00:10:16.049Z,98385.02
2019-04-14T00:11:19.125Z,98382.30
2019-04-14T00:12:23.008Z,98389.28
2019-04-14T00:13:30.580Z,98386.58
2019-04-14T00:14:33.675Z,98387.91
2019-04-14T00:15:50.769Z,98387.13
2019-04-14T00:16:59.647Z,98387.13
2019-04-14T00:18:01.599Z,98386.35
2019-04-14T00:19:15.159Z,98381.80
2019-04-14T00:20:18.621Z,98381.80
2019-04-14T00:21:28.187Z,98383.66
2019-04-14T00:22:33.893Z,98376.20
2019-04-14T00:23:36.985Z,98371.11
2019-04-14T00:24:48.827Z,98371.14
2019-04-14T00:25:59.481Z,98371.95
2019-04-14T00:27:07.124Z,98370.37
2019-04-14T00:28:11.725Z,98370.37
2019-04-14T00:29:15.184Z,98369.28
2019-04-14T00:30:25.201Z,98366.84
2019-04-14T00:31:28.823Z,98372.17
2019-04-14T00:32:33.456Z,98372.17
2019-04-14T00:33:40.970Z,98373.98
2019-04-14T00:35:06.108Z,98373.98
2019-04-14T00:36:34.782Z,98368.64
2019-04-14T00:38:02.456Z,98368.64
2019-04-14T00:39:22.646Z,98362.52
2019-04-14T00:40:33.011Z,98364.94
2019-04-14T00:41:48.828Z,98364.94
2019-04-14T00:43:07.024Z,98369.27
2019-04-14T00:44:34.022Z,98372.21
2019-04-14T00:46:02.210Z,98372.21
2019-04-14T00:47:18.363Z,98371.39
2019-04-14T00:48:30.043Z,98372.24
2019-04-14T00:49:37.545Z,98369.55
2019-04-14T00:50:40.905Z,98369.55
2019-04-14T00:51:46.086Z,98372.23
2019-04-14T00:52:50.142Z,98372.23
2019-04-14T00:54:15.441Z,98372.23
2019-04-14T00:55:22.581Z,98375.35
2019-04-14T00:56:30.634Z,98363.22
2019-04-14T00:57:37.647Z,98377.97
2019-04-14T00:58:47.433Z,98372.25
2019-04-14T00:59:59.506Z,98372.25
2019-04-14T01:01:02.778Z,98368.90
2019-04-14T01:02:05.740Z,98374.21
2019-04-14T01:03:13.389Z,98372.38
2019-04-14T01:04:20.870Z,98372.45
2019-04-14T01:05:24.379Z,98373.61
2019-04-14T01:06:27.534Z,98359.19
2019-04-14T01:07:35.398Z,98363.27
2019-04-14T01:08:38.694Z,98363.87
2019-04-14T01:09:42.196Z,98366.27
2019-04-14T01:10:47.649Z,98362.31
2019-04-14T01:11:51.015Z,98362.31
2019-04-14T01:12:53.955Z,98358.31
2019-04-14T01:13:57.239Z,98358.63
2019-04-14T01:15:00.827Z,98356.73
2019-04-14T01:16:08.902Z,98359.16
2019-04-14T01:17:09.065Z,98359.17
2019-04-14T01:18:12.543Z,98359.17
2019-04-14T01:19:15.594Z,98359.73
2019-04-14T01:20:21.234Z,98360.01
2019-04-14T01:21:24.221Z,98357.03
2019-04-14T01:22:27.585Z,98363.20
2019-04-14T01:23:30.557Z,98363.20
2019-04-14T01:24:33.759Z,98360.79
2019-04-14T01:25:36.846Z,98363.48
2019-04-14T01:26:40.009Z,98368.86
2019-04-14T01:27:42.988Z,98360.81
2019-04-14T01:28:46.275Z,98364.84
2019-04-14T01:29:49.523Z,98363.77
2019-04-14T01:30:56.487Z,98365.39
2019-04-14T01:32:00.695Z,98374.23
2019-04-14T01:33:05.852Z,98367.22
2019-04-14T01:34:08.721Z,98370.17
2019-04-14T01:35:11.886Z,98373.42
2019-04-14T01:36:15.491Z,98373.42
2019-04-14T01:37:18.331Z,98371.24
2019-04-14T01:38:21.229Z,98373.38
2019-04-14T01:39:24.350Z,98370.69
2019-04-14T01:40:27.298Z,98369.09
2019-04-14T01:41:30.448Z,98374.14
2019-04-14T01:42:33.493Z,98376.50
2019-04-14T01:43:36.823Z,98368.94
2019-04-14T01:44:39.651Z,98374.06
2019-04-14T01:45:42.560Z,98375.97
2019-04-14T01:46:45.609Z,98375.97
2019-04-14T01:47:51.096Z,98369.28
2019-04-14T01:48:54.060Z,98368.27
2019-04-14T01:49:57.468Z,98368.27
2019-04-14T01:51:28.875Z,98361.61
2019-04-14T01:52:56.793Z,98370.19
2019-04-14T01:54:19.250Z,98369.40
2019-04-14T01:55:44.130Z,98368.84
2019-04-14T01:57:11.044Z,98375.28
2019-04-14T01:58:17.130Z,98375.28
2019-04-14T01:59:20.379Z,98371.02
2019-04-14T02:00:51.429Z,98371.02
2019-04-14T02:01:56.537Z,98369.95
2019-04-14T02:02:59.699Z,98372.36
2019-04-14T02:04:02.996Z,98372.36
2019-04-14T02:05:06.049Z,98376.38
2019-04-14T02:06:09.332Z,98376.38
2019-04-14T02:07:12.383Z,98382.52
2019-04-14T02:08:15.588Z,98381.43
2019-04-14T02:09:18.830Z,98376.30
2019-04-14T02:10:24.458Z,98388.16
2019-04-14T02:11:29.146Z,98378.22
2019-04-14T02:12:32.420Z,98380.91
2019-04-14T02:13:35.718Z,98386.29
2019-04-14T02:14:38.722Z,98385.20
2019-04-14T02:15:42.035Z,98385.20
2019-04-14T02:16:50.831Z,98382.53
2019-04-14T02:17:50.268Z,98385.77
2019-04-14T02:18:55.298Z,98378.52
2019-04-14T02:19:58.972Z,98377.97
2019-04-14T02:21:02.121Z,98377.97
2019-04-14T02:22:05.203Z,98385.23
2019-04-14T02:23:08.512Z,98383.11
2019-04-14T02:24:11.417Z,98379.31
2019-04-14T02:25:14.510Z,98379.86
2019-04-14T02:26:17.662Z,98379.86
2019-04-14T02:27:21.043Z,98377.97
2019-04-14T02:28:24.266Z,98377.97
2019-04-14T02:29:27.603Z,98372.88
2019-04-14T02:30:38.005Z,98367.77
2019-04-14T02:31:59.988Z,98370.72
2019-04-14T02:33:07.793Z,98370.72
2019-04-14T02:34:07.427Z,98368.56
2019-04-14T02:38:43.557Z,98369.92
2019-04-14T02:40:49.325Z,98376.91
2019-04-14T02:41:52.939Z,98373.16
2019-04-14T02:42:46.515Z,98375.84
2019-04-14T02:43:58.402Z,98371.80
2019-04-14T02:44:59.866Z,98372.36
2019-04-14T02:47:18.371Z,98364.31
2019-04-14T02:48:36.122Z,98375.35
2019-04-14T02:49:12.370Z,98376.69
2019-04-14T02:50:17.537Z,98376.69
2019-04-14T02:51:25.620Z,98377.76
2019-04-14T02:52:35.319Z,98382.30
2019-04-14T02:54:51.711Z,98381.23
2019-04-14T02:55:48.968Z,98381.23
2019-04-14T02:56:55.038Z,98378.56
2019-04-14T02:57:52.899Z,98378.56
2019-04-14T03:00:07.724Z,98383.15
2019-04-14T03:01:15.037Z,98389.31
2019-04-14T03:02:25.537Z,98389.31
2019-04-14T03:03:25.722Z,98379.38
2019-04-14T03:05:27.191Z,98381.52
2019-04-14T03:06:48.528Z,98388.23
2019-04-14T03:07:40.194Z,98386.09
2019-04-14T03:08:50.802Z,98384.98
2019-04-14T03:10:29.868Z,98389.56
2019-04-14T03:10:55.807Z,98389.56
2019-04-14T03:11:51.322Z,98391.19
2019-04-14T03:13:05.493Z,98386.63
2019-04-14T03:14:07.993Z,98378.84
2019-04-14T03:15:09.749Z,98387.19
2019-04-14T03:18:57.679Z,98378.33
2019-04-14T03:20:40.161Z,98380.74
2019-04-14T03:23:36.580Z,98383.15
2019-04-14T03:24:39.161Z,98374.81
2019-04-14T03:26:10.171Z,98375.88
2019-04-14T03:27:33.053Z,98382.58
2019-04-14T03:28:38.499Z,98384.75
2019-04-14T03:31:12.188Z,98385.33
2019-04-14T03:32:15.039Z,98383.16
2019-04-14T03:33:26.999Z,98389.61
2019-04-14T03:34:30.061Z,98378.61
2019-04-14T03:35:44.095Z,98388.81
2019-04-14T03:36:49.825Z,98385.05
2019-04-14T03:37:37.723Z,98385.05
2019-04-14T03:38:24.650Z,98390.94
2019-04-14T03:39:31.455Z,98376.72
2019-04-14T03:40:35.652Z,98376.72
2019-04-14T03:42:43.579Z,98381.81
2019-04-14T03:43:44.616Z,98378.05
2019-04-14T03:45:17.026Z,98374.82
2019-04-14T03:46:01.998Z,98377.50
2019-04-14T03:47:09.871Z,98379.91
2019-04-14T03:50:16.494Z,98388.25
2019-04-14T03:51:26.340Z,98379.95
2019-04-14T03:52:31.654Z,98379.95
2019-04-14T03:53:40.017Z,98381.81
2019-04-14T03:54:25.920Z,98383.70
2019-04-14T03:55:25.462Z,98382.88
2019-04-14T03:56:20.078Z,98384.48
2019-04-14T03:57:23.698Z,98387.17
2019-04-14T03:58:27.129Z,98387.17
2019-04-14T03:59:30.321Z,98388.24
2019-04-14T04:00:33.529Z,98388.25
2019-04-14T04:01:36.779Z,98393.61
2019-04-14T04:02:42.316Z,98379.66
2019-04-14T04:03:45.804Z,98379.66
2019-04-14T04:04:48.861Z,98394.69
2019-04-14T04:05:52.186Z,98391.48
2019-04-14T04:06:55.483Z,98391.48
2019-04-14T04:07:58.403Z,98390.13
2019-04-14T04:09:01.921Z,98391.98
2019-04-14T04:10:11.537Z,98384.97
2019-04-14T04:11:15.094Z,98383.92
2019-04-14T04:12:18.281Z,98381.00
2019-04-14T04:13:21.561Z,98381.00
2019-04-14T04:14:24.651Z,98387.97
2019-04-14T04:15:27.891Z,98395.22
2019-04-14T04:16:59.554Z,98395.22
2019-04-14T04:18:09.142Z,98400.33
2019-04-14T04:19:19.751Z,98400.33
2019-04-14T04:20:41.665Z,98399.25
2019-04-14T04:21:55.636Z,98407.33
2019-04-14T04:23:20.506Z,98407.86
2019-04-14T04:24:41.043Z,98404.63
2019-04-14T04:26:04.009Z,98404.63
2019-04-14T04:27:26.599Z,98405.19
2019-04-14T04:28:51.805Z,98403.56
2019-04-14T04:30:23.075Z,98406.22
2019-04-14T04:31:46.009Z,98406.22
2019-04-14T04:33:06.818Z,98405.95
2019-04-14T04:34:22.636Z,98405.95
2019-04-14T04:35:42.208Z,98409.92
2019-04-14T04:36:55.315Z,98408.53
2019-04-14T04:38:20.703Z,98412.84
2019-04-14T04:39:27.986Z,98410.19
2019-04-14T04:40:33.232Z,98410.19
2019-04-14T04:41:38.562Z,98412.88
2019-04-14T04:42:41.664Z,98412.33
2019-04-14T04:43:45.180Z,98413.12
2019-04-14T04:44:48.805Z,98413.38
2019-04-14T04:45:51.798Z,98408.30
2019-04-14T04:47:31.555Z,98416.64
2019-04-14T04:48:09.155Z,98411.53
2019-04-14T04:49:18.326Z,98412.86
2019-04-14T04:50:17.576Z,98412.86
2019-04-14T04:51:20.450Z,98411.52
2019-04-14T04:52:23.679Z,98411.52
2019-04-14T04:53:27.092Z,98417.13
2019-04-14T04:54:30.159Z,98421.72
2019-04-14T04:55:32.988Z,98421.72
2019-04-14T04:56:36.227Z,98418.20
2019-04-14T04:57:39.575Z,98419.26
2019-04-14T04:58:43.487Z,98419.26
2019-04-14T04:59:49.613Z,98413.65
2019-04-14T05:00:54.189Z,98419.03
2019-04-14T05:01:56.104Z,98420.07
2019-04-14T05:02:59.313Z,98420.59
2019-04-14T05:04:02.459Z,98414.70
2019-04-14T05:05:05.564Z,98412.52
2019-04-14T05:06:09.199Z,98412.52
2019-04-14T05:07:12.473Z,98420.87
2019-04-14T05:08:15.342Z,98414.45
2019-04-14T05:09:25.212Z,98420.34
2019-04-14T05:10:39.989Z,98416.58
2019-04-14T05:11:46.988Z,98416.58
2019-04-14T05:13:11.832Z,98412.28
2019-04-14T05:14:22.315Z,98412.28
2019-04-14T05:15:42.460Z,98413.69
2019-04-14T05:16:46.140Z,98419.31
2019-04-14T05:17:49.583Z,98417.38
2019-04-14T05:18:53.047Z,98417.38
2019-04-14T05:19:56.347Z,98419.23
2019-04-14T05:20:59.656Z,98413.87
2019-04-14T05:22:02.829Z,98421.41
2019-04-14T05:23:05.909Z,98421.41
2019-04-14T05:24:09.302Z,98418.71
2019-04-14T05:25:13.079Z,98427.29
2019-04-14T05:26:22.005Z,98424.59
2019-04-14T05:27:25.412Z,98437.00
2019-04-14T05:28:28.872Z,98435.16
2019-04-14T05:29:32.265Z,98435.16
2019-04-14T05:43:52.038Z,98445.48
2019-04-14T05:44:51.669Z,98446.00
2019-04-14T05:45:56.676Z,98448.16
2019-04-14T05:47:00.069Z,98448.16
2019-04-14T05:48:03.331Z,98453.02
2019-04-14T05:49:06.609Z,98454.09
2019-04-14T05:50:09.616Z,98448.20
2019-04-14T05:51:13.049Z,98448.98
2019-04-14T05:52:16.343Z,98450.88
2019-04-14T05:53:19.684Z,98458.66
2019-04-14T05:54:23.146Z,98458.94
2019-04-14T05:55:26.389Z,98459.22
2019-04-14T05:56:29.654Z,98459.22
2019-04-14T05:57:32.737Z,98455.98
2019-04-14T05:58:36.142Z,98455.44
2019-04-14T05:59:39.739Z,98460.02
2019-04-14T06:00:46.278Z,98463.79
2019-04-14T06:01:49.644Z,98459.25
2019-04-14T06:02:55.188Z,98461.11
2019-04-14T06:03:58.734Z,98463.00
2019-04-14T06:05:01.976Z,98462.73
2019-04-14T06:06:04.891Z,98462.73
2019-04-14T06:07:08.087Z,98462.75
2019-04-14T06:08:11.218Z,98456.59
2019-04-14T06:09:14.211Z,98461.97
2019-04-14T06:10:19.339Z,98463.86
2019-04-14T06:11:22.197Z,98462.52
2019-04-14T06:12:27.256Z,98462.52
2019-04-14T06:13:30.497Z,98462.80
2019-04-14T06:14:33.697Z,98460.11
2019-04-14T06:15:36.500Z,98460.89
2019-04-14T06:16:39.327Z,98467.09
2019-04-14T06:17:42.188Z,98460.09
2019-04-14T06:18:45.000Z,98465.47
2019-04-14T06:19:48.372Z,98467.09
2019-04-14T06:20:51.500Z,98467.89
2019-04-14T06:21:59.817Z,98466.23
2019-04-14T06:23:03.720Z,98461.92
2019-04-14T06:24:07.260Z,98466.75
2019-04-14T06:25:12.383Z,98462.39
2019-04-14T06:26:18.725Z,98460.78
2019-04-14T06:27:22.133Z,98460.78
2019-04-14T06:28:25.011Z,98458.59
2019-04-14T06:29:27.878Z,98463.36
2019-04-14T06:30:49.432Z,98463.36
2019-04-14T06:32:09.398Z,98457.50
2019-04-14T06:33:31.380Z,98462.07
2019-04-14T06:34:47.846Z,98458.46
2019-04-14T06:36:12.402Z,98457.11
2019-04-14T06:37:29.092Z,98458.71
2019-04-14T06:38:34.943Z,98461.31
2019-04-14T06:39:41.755Z,98455.05
2019-04-14T06:40:52.271Z,98455.05
2019-04-14T06:41:56.592Z,98451.09
2019-04-14T06:42:59.509Z,98454.09
2019-04-14T06:44:03.629Z,98449.71
2019-04-14T06:45:06.489Z,98449.71
2019-04-14T06:46:09.323Z,98446.45
2019-04-14T06:47:12.378Z,98451.09
2019-04-14T06:48:16.147Z,98447.27
2019-04-14T06:49:19.024Z,98441.10
2019-04-14T06:50:21.862Z,98441.10
2019-04-14T06:51:24.773Z,98454.97
2019-04-14T06:52:27.664Z,98448.89
2019-04-14T06:53:30.980Z,98448.89
2019-04-14T06:54:34.239Z,98450.19
2019-04-14T06:55:37.198Z,98460.30
2019-04-14T06:56:40.464Z,98458.68
2019-04-14T06:57:43.339Z,98451.69
2019-04-14T06:58:47.166Z,98451.69
2019-04-14T07:00:10.049Z,98456.11
2019-04-14T07:01:14.796Z,98456.94
2019-04-14T07:02:17.380Z,98456.94
2019-04-14T07:03:20.194Z,98460.19
2019-04-14T07:04:25.583Z,98460.87
2019-04-14T07:05:30.017Z,98468.62
2019-04-14T07:06:34.212Z,98458.45
2019-04-14T07:07:37.092Z,98463.89
2019-04-14T07:08:40.008Z,98463.72
2019-04-14T07:09:43.289Z,98463.75
2019-04-14T07:10:46.115Z,98463.75
2019-04-14T07:11:52.109Z,98460.84
2019-04-14T07:12:55.408Z,98459.52
2019-04-14T07:13:58.324Z,98464.50
2019-04-14T07:15:01.186Z,98461.45
2019-04-14T07:16:06.771Z,98449.30
2019-04-14T07:17:09.819Z,98449.30
2019-04-14T07:18:13.475Z,98456.86
2019-04-14T07:19:16.387Z,98456.86
2019-04-14T07:20:19.258Z,98462.69
2019-04-14T07:21:22.116Z,98470.36
2019-04-14T07:22:26.818Z,98468.80
2019-04-14T07:23:32.742Z,98471.29
2019-04-14T07:24:35.603Z,98478.78
2019-04-14T07:25:38.984Z,98474.94
2019-04-14T07:26:41.836Z,98474.94
2019-04-14T07:27:44.677Z,98474.20
2019-04-14T07:28:56.615Z,98470.42
2019-04-14T07:30:00.723Z,98466.12
2019-04-14T07:31:16.645Z,98475.84
2019-04-14T07:32:50.536Z,98474.57
2019-04-14T07:34:15.222Z,98476.34
2019-04-14T07:35:37.075Z,98472.94
2019-04-14T07:37:04.229Z,98473.11
2019-04-14T07:38:14.866Z,98469.52
2019-04-14T07:39:25.488Z,98469.52
2019-04-14T07:40:56.595Z,98473.53
2019-04-14T07:42:18.229Z,98471.39
2019-04-14T07:43:34.796Z,98472.17
2019-04-14T07:44:50.229Z,98463.25
2019-04-14T07:46:12.281Z,98463.25
2019-04-14T07:47:37.457Z,98468.86
2019-04-14T07:48:52.046Z,98466.52
2019-04-14T07:50:16.656Z,98466.52
2019-04-14T07:51:28.850Z,98468.16
2019-04-14T07:52:48.852Z,98477.88
2019-04-14T07:54:13.488Z,98468.30
2019-04-14T07:55:50.250Z,98466.17
2019-04-14T07:57:09.117Z,98462.20
2019-04-14T07:58:30.722Z,98462.20
2019-04-14T07:59:50.906Z,98467.48
2019-04-14T08:01:09.315Z,98467.14
2019-04-14T08:02:31.615Z,98478.32
2019-04-14T08:03:52.176Z,98466.55
2019-04-14T08:05:10.232Z,98454.92
2019-04-14T08:06:18.025Z,98455.80
2019-04-14T08:07:20.648Z,98455.80
2019-04-14T08:08:24.077Z,98460.49
2019-04-14T08:09:27.058Z,98448.66
2019-04-14T08:10:32.767Z,98463.08
2019-04-14T08:11:36.106Z,98460.33
2019-04-14T08:12:38.931Z,98468.17
2019-04-14T08:13:41.773Z,98468.17
2019-04-14T08:14:44.916Z,98464.20
2019-04-14T08:15:47.828Z,98464.20
2019-04-14T08:16:50.752Z,98467.14
2019-04-14T08:17:54.038Z,98465.42
2019-04-14T08:18:56.937Z,98477.33
2019-04-14T08:19:59.844Z,98464.70
2019-04-14T08:21:03.295Z,98466.23
2019-04-14T08:22:06.641Z,98468.61
2019-04-14T08:23:12.307Z,98477.89
2019-04-14T08:24:18.179Z,98468.23
2019-04-14T08:25:25.627Z,98476.69
2019-04-14T08:26:29.432Z,98478.63
2019-04-14T08:27:35.252Z,98478.63
2019-04-14T08:28:40.974Z,98480.55
2019-04-14T08:29:46.709Z,98480.55
2019-04-14T08:30:49.710Z,98487.86
2019-04-14T08:31:52.639Z,98487.86
2019-04-14T08:32:55.808Z,98470.21
2019-04-14T08:33:58.699Z,98480.15
2019-04-14T08:35:04.674Z,98481.33
2019-04-14T08:36:07.555Z,98481.33
2019-04-14T08:37:10.461Z,98472.42
2019-04-14T08:38:15.012Z,98473.44
2019-04-14T08:39:21.158Z,98473.44
2019-04-14T08:40:24.143Z,98469.95
2019-04-14T08:41:31.973Z,98459.77
2019-04-14T08:43:01.202Z,98459.77
2019-04-14T08:44:15.952Z,98471.70
2019-04-14T08:45:36.525Z,98462.72
2019-04-14T08:47:04.953Z,98462.72
2019-04-14T08:48:26.924Z,98471.74
2019-04-14T08:49:38.551Z,98469.66
2019-04-14T08:51:03.008Z,98469.66
2019-04-14T08:52:18.328Z,98470.70
2019-04-14T08:53:40.519Z,98470.70
2019-04-14T08:54:58.937Z,98467.16
2019-04-14T08:56:37.098Z,98467.77
2019-04-14T08:57:59.095Z,98467.77
2019-04-14T08:59:26.385Z,98458.88
2019-04-14T09:00:59.989Z,98474.94
2019-04-14T09:02:12.862Z,98474.94
2019-04-14T09:03:28.267Z,98466.09
2019-04-14T09:04:41.415Z,98466.09
2019-04-14T09:06:17.891Z,98454.38
2019-04-14T09:07:27.255Z,98454.38
2019-04-14T09:08:35.747Z,98463.89
2019-04-14T09:09:41.922Z,98469.61
2019-04-14T09:10:48.235Z,98463.73
2019-04-14T09:12:15.810Z,98463.73
2019-04-14T09:13:18.106Z,98469.44
2019-04-14T09:14:24.532Z,98466.25
2019-04-14T09:15:28.005Z,98463.36
2019-04-14T09:16:30.978Z,98464.03
2019-04-14T09:17:34.152Z,98466.62
2019-04-14T09:18:40.588Z,98466.62
2019-04-14T09:19:47.000Z,98474.36
2019-04-14T09:20:54.874Z,98473.35
2019-04-14T09:21:57.784Z,98467.15
2019-04-14T09:23:05.791Z,98467.77
2019-04-14T09:24:15.020Z,98467.77
2019-04-14T09:25:18.475Z,98473.09
2019-04-14T09:26:23.130Z,98471.36
2019-04-14T09:27:27.743Z,98472.65
2019-04-14T09:28:30.875Z,98472.65
2019-04-14T09:29:33.933Z,98466.28
2019-04-14T09:30:36.973Z,98466.28
2019-04-14T09:31:40.128Z,98474.37
2019-04-14T09:32:44.663Z,98475.39
2019-04-14T09:33:47.884Z,98474.60
2019-04-14T09:34:51.333Z,98474.60
2019-04-14T09:35:54.224Z,98471.77
2019-04-14T09:36:57.070Z,98471.64
2019-04-14T09:38:00.092Z,98474.33
2019-04-14T09:39:03.348Z,98474.33
2019-04-14T09:40:06.695Z,98466.75
2019-04-14T09:41:09.735Z,98466.75
2019-04-14T09:42:12.607Z,98463.77
2019-04-14T09:43:17.042Z,98465.91
2019-04-14T09:44:22.102Z,98478.67
2019-04-14T09:45:25.211Z,98473.15
2019-04-14T09:46:31.373Z,98470.76
2019-04-14T09:47:34.305Z,98469.84
2019-04-14T09:48:37.205Z,98468.48
2019-04-14T09:49:44.652Z,98468.48
2019-04-14T09:50:49.691Z,98471.27
2019-04-14T09:51:57.581Z,98474.34
2019-04-14T09:53:01.076Z,98467.27
2019-04-14T09:54:03.935Z,98467.27
2019-04-14T09:55:09.266Z,98464.42
2019-04-14T09:56:12.073Z,98466.19
2019-04-14T09:57:15.444Z,98466.19
2019-04-14T09:58:18.268Z,98450.40
2019-04-14T09:59:21.719Z,98472.70
2019-04-14T10:00:26.874Z,98457.02
2019-04-14T10:01:29.546Z,98468.87
2019-04-14T10:02:32.390Z,98468.87
2019-04-14T10:03:35.355Z,98459.94
2019-04-14T10:04:38.294Z,98459.75
2019-04-14T10:05:42.784Z,98459.75
2019-04-14T10:06:46.059Z,98457.86
2019-04-14T10:07:49.031Z,98469.72
2019-04-14T10:08:59.322Z,98468.94
2019-04-14T10:10:02.628Z,98468.94
2019-04-14T10:11:05.462Z,98470.52
2019-04-14T10:12:08.768Z,98469.78
2019-04-14T10:13:13.834Z,98461.27
2019-04-14T10:14:19.782Z,98462.11
2019-04-14T10:15:26.059Z,98462.11
2019-04-14T10:16:30.473Z,98464.93
2019-04-14T10:17:36.638Z,98469.48
2019-04-14T10:18:40.953Z,98471.17
2019-04-14T10:19:43.853Z,98474.00
2019-04-14T10:20:46.702Z,98474.00
2019-04-14T10:21:49.592Z,98470.66
2019-04-14T10:22:52.902Z,98478.42
2019-04-14T10:23:55.834Z,98478.56
2019-04-14T10:24:59.003Z,98478.56
2019-04-14T10:26:01.888Z,98473.75
2019-04-14T10:27:04.684Z,98474.25
2019-04-14T10:28:07.526Z,98475.77
2019-04-14T10:29:10.423Z,98477.66
2019-04-14T10:42:34.401Z,98481.73
2019-04-14T10:43:37.227Z,98487.73
2019-04-14T10:44:40.182Z,98487.73
2019-04-14T10:45:43.724Z,98478.67
2019-04-14T10:46:50.246Z,98483.17
2019-04-14T10:47:53.536Z,98477.30
2019-04-14T10:48:56.708Z,98482.16
2019-04-14T10:50:00.851Z,98482.16
2019-04-14T10:51:03.827Z,98477.08
2019-04-14T10:52:07.021Z,98477.08
2019-04-14T10:53:10.233Z,98478.08
2019-04-14T10:54:13.566Z,98472.28
2019-04-14T10:55:20.056Z,98478.56
2019-04-14T10:56:24.341Z,98474.47
2019-04-14T10:57:31.009Z,98471.67
2019-04-14T10:58:34.259Z,98472.39
2019-04-14T10:59:39.869Z,98478.49
2019-04-14T11:00:45.813Z,98476.76
2019-04-14T11:01:48.718Z,98476.76
2019-04-14T11:02:51.665Z,98476.13
2019-04-14T11:03:57.724Z,98480.36
2019-04-14T11:05:00.766Z,98488.30
2019-04-14T11:06:13.968Z,98483.95
2019-04-14T11:07:32.237Z,98488.05
2019-04-14T11:08:35.208Z,98495.37
2019-04-14T11:09:40.237Z,98496.00
2019-04-14T11:10:43.144Z,98485.66
2019-04-14T11:11:46.296Z,98479.92
2019-04-14T11:12:49.351Z,98474.63
2019-04-14T11:13:52.255Z,98475.47
2019-04-14T11:14:57.694Z,98466.14
2019-04-14T11:16:05.186Z,98480.84
2019-04-14T11:17:07.287Z,98485.41
2019-04-14T11:18:15.273Z,98479.16
2019-04-14T11:19:18.261Z,98466.34
2019-04-14T11:20:21.385Z,98473.27
2019-04-14T11:21:24.269Z,98471.16
2019-04-14T11:22:32.930Z,98472.00
2019-04-14T11:23:31.737Z,98472.00
2019-04-14T11:24:37.241Z,98472.38
2019-04-14T11:25:40.184Z,98471.66
2019-04-14T11:26:44.934Z,98471.66
2019-04-14T11:27:47.967Z,98472.52
2019-04-14T11:28:51.754Z,98473.96
2019-04-14T11:29:56.389Z,98473.96
2019-04-14T11:32:11.443Z,98465.61
2019-04-14T11:33:23.315Z,98474.16
2019-04-14T11:34:31.634Z,98480.50
2019-04-14T11:35:50.229Z,98484.43
2019-04-14T11:37:27.132Z,98478.73
2019-04-14T11:38:45.435Z,98490.01
2019-04-14T11:39:49.008Z,98484.59
2019-04-14T11:40:54.411Z,98481.06
2019-04-14T11:41:59.411Z,98481.06
2019-04-14T11:43:02.295Z,98487.59
2019-04-14T11:44:07.846Z,98473.64
2019-04-14T11:45:10.985Z,98473.64
2019-04-14T11:46:16.724Z,98472.51
2019-04-14T11:47:19.691Z,98468.27
2019-04-14T11:48:22.670Z,98474.41
2019-04-14T11:49:27.375Z,98480.77
2019-04-14T11:50:30.448Z,98480.77
2019-04-14T11:51:33.761Z,98476.67
2019-04-14T11:52:37.118Z,98471.24
2019-04-14T11:53:41.699Z,98472.57
2019-04-14T11:54:44.652Z,98477.02
2019-04-14T11:55:48.038Z,98477.02
2019-04-14T11:56:51.047Z,98472.44
2019-04-14T11:57:57.676Z,98472.44
2019-04-14T11:59:02.755Z,98475.55
2019-04-14T12:00:23.199Z,98465.20
2019-04-14T12:01:47.022Z,98472.58
2019-04-14T12:03:09.223Z,98478.59
2019-04-14T12:04:43.329Z,98474.95
2019-04-14T12:06:03.479Z,98474.95
2019-04-14T12:07:31.313Z,98471.13
2019-04-14T12:08:39.856Z,98483.42
2019-04-14T12:10:01.573Z,98483.42
2019-04-14T12:11:04.626Z,98483.96
2019-04-14T12:12:09.583Z,98483.96
2019-04-14T12:13:12.504Z,98479.17
2019-04-14T12:14:15.909Z,98478.11
2019-04-14T12:15:18.894Z,98478.11
2019-04-14T12:16:21.746Z,98473.39
2019-04-14T12:17:25.607Z,98478.24
2019-04-14T12:18:28.673Z,98462.94
2019-04-14T12:19:33.124Z,98484.46
2019-04-14T12:20:36.529Z,98484.46
2019-04-14T12:21:42.489Z,98485.68
2019-04-14T12:22:45.404Z,98477.57
2019-04-14T12:23:48.428Z,98481.85
2019-04-14T12:24:52.142Z,98481.85
2019-04-14T12:26:05.349Z,98482.63
2019-04-14T12:27:02.367Z,98478.70
2019-04-14T12:28:09.199Z,98480.72
2019-04-14T12:29:12.281Z,98483.47
2019-04-14T12:30:15.813Z,98496.59
2019-04-14T12:31:19.907Z,98495.08
2019-04-14T12:32:22.952Z,98487.53
2019-04-14T12:33:26.487Z,98491.03
2019-04-14T12:34:29.462Z,98486.84
2019-04-14T12:35:33.040Z,98493.84
2019-04-14T12:36:36.042Z,98492.36
2019-04-14T12:37:39.280Z,98493.28
2019-04-14T12:38:43.053Z,98484.78
2019-04-14T12:39:46.527Z,98496.14
2019-04-14T12:40:52.437Z,98492.64
2019-04-14T12:42:13.311Z,98481.97
2019-04-14T12:43:29.759Z,98481.97
2019-04-14T12:44:51.709Z,98488.36
2019-04-14T12:46:32.753Z,98488.36
2019-04-14T12:47:57.167Z,98480.84
2019-04-14T12:49:10.428Z,98483.67
2019-04-14T12:50:37.826Z,98490.08
2019-04-14T12:51:59.957Z,98489.39
2019-04-14T12:53:04.559Z,98487.94
2019-04-14T12:54:07.452Z,98481.41
2019-04-14T12:55:15.271Z,98484.06
2019-04-14T12:56:21.435Z,98490.08
2019-04-14T12:57:32.150Z,98484.81
2019-04-14T12:59:05.734Z,98490.53
2019-04-14T13:00:15.190Z,98483.14
2019-04-14T13:01:21.191Z,98469.64
2019-04-14T13:02:27.479Z,98486.81
2019-04-14T13:03:35.101Z,98486.81
2019-04-14T13:04:39.821Z,98484.56
2019-04-14T13:05:45.922Z,98492.30
2019-04-14T13:06:48.837Z,98492.30
2019-04-14T13:07:52.683Z,98473.39
2019-04-14T13:08:56.035Z,98483.59
2019-04-14T13:09:59.433Z,98488.31
2019-04-14T13:11:08.166Z,98488.31
2019-04-14T13:12:12.085Z,98479.70
2019-04-14T13:13:14.952Z,98482.52
2019-04-14T13:14:17.778Z,98500.99
2019-04-14T13:15:20.605Z,98497.81
2019-04-14T13:16:25.949Z,98497.81
2019-04-14T13:17:28.929Z,98495.92
2019-04-14T13:18:32.239Z,98492.08
2019-04-14T13:19:38.601Z,98492.27
2019-04-14T13:20:41.551Z,98488.44
2019-04-14T13:21:44.823Z,98481.47
2019-04-14T13:22:48.137Z,98480.19
2019-04-14T13:23:56.221Z,98490.92
2019-04-14T13:24:59.077Z,98482.73
2019-04-14T13:26:11.139Z,98478.16
2019-04-14T13:27:14.096Z,98477.65
2019-04-14T13:28:18.564Z,98478.45
2019-04-14T13:29:21.836Z,98475.92
2019-04-14T13:30:28.625Z,98475.92
2019-04-14T13:31:31.749Z,98473.73
2019-04-14T13:32:36.095Z,98477.60
2019-04-14T13:33:39.311Z,98477.60
2019-04-14T13:34:43.530Z,98482.16
2019-04-14T13:35:46.847Z,98482.16
2019-04-14T13:36:49.700Z,98471.66
2019-04-14T13:37:54.659Z,98476.91
2019-04-14T13:38:59.059Z,98478.62
2019-04-14T13:40:05.696Z,98473.15
2019-04-14T13:41:08.598Z,98481.56
2019-04-14T13:42:11.898Z,98488.98
2019-04-14T13:43:16.929Z,98488.98
2019-04-14T13:44:30.580Z,98487.80
2019-04-14T13:45:33.704Z,98489.08
2019-04-14T13:46:39.101Z,98487.81
2019-04-14T13:47:42.110Z,98489.23
2019-04-14T13:48:45.426Z,98489.23
2019-04-14T13:49:48.445Z,98488.30
2019-04-14T13:50:51.317Z,98488.30
2019-04-14T13:51:54.253Z,98494.38
2019-04-14T13:53:00.602Z,98479.31
2019-04-14T13:54:04.206Z,98480.78
2019-04-14T13:55:11.045Z,98480.03